createdAt,value
2022-10-28T00:02:00.588Z,13.38
2022-10-28T00:07:03.122Z,13.40
2022-10-28T00:12:05.903Z,13.45
2022-10-28T00:17:08.214Z,13.40
2022-10-28T00:22:10.508Z,13.30
2022-10-28T00:27:12.752Z,13.26
2022-10-28T00:32:15.067Z,13.31
2022-10-28T00:37:17.420Z,13.25
2022-10-28T00:42:22.475Z,13.30
2022-10-28T00:47:33.835Z,13.26
2022-10-28T00:52:36.340Z,13.58
2022-10-28T00:57:39.601Z,13.32
2022-10-28T01:02:46.422Z,13.27
2022-10-28T01:07:51.434Z,13.23
2022-10-28T01:13:19.660Z,13.12
2022-10-28T01:18:44.005Z,13.05
2022-10-28T01:24:08.947Z,13.20
2022-10-28T01:29:42.025Z,13.16
2022-10-28T01:35:15.005Z,13.17
2022-10-28T01:40:23.977Z,12.93
2022-10-28T01:45:31.698Z,12.88
2022-10-28T01:50:59.066Z,12.87
2022-10-28T01:56:07.003Z,12.98
2022-10-28T02:01:10.494Z,12.97
2022-10-28T02:06:21.659Z,12.79
2022-10-28T02:11:51.910Z,12.63
2022-10-28T02:17:16.242Z,12.63
2022-10-28T02:22:22.257Z,12.71
2022-10-28T02:27:33.835Z,12.54
2022-10-28T02:32:42.063Z,12.58
2022-10-28T02:37:46.768Z,12.74
2022-10-28T02:42:55.957Z,12.70
2022-10-28T02:48:02.863Z,12.66
2022-10-28T02:53:13.746Z,12.65
2022-10-28T02:58:16.102Z,12.71
2022-10-28T03:03:18.490Z,12.81
2022-10-28T03:08:20.922Z,12.85
2022-10-28T03:13:23.528Z,12.76
2022-10-28T03:18:26.025Z,12.68
2022-10-28T03:23:28.475Z,12.72
2022-10-28T03:28:30.804Z,12.82
2022-10-28T03:33:33.153Z,12.88
2022-10-28T03:38:35.458Z,12.76
2022-10-28T03:43:38.067Z,13.04
2022-10-28T03:48:40.429Z,13.13
2022-10-28T03:53:42.991Z,13.09
2022-10-28T03:58:48.726Z,13.16
2022-10-28T04:03:51.102Z,13.11
2022-10-28T04:08:53.416Z,13.02
2022-10-28T04:13:55.840Z,13.05
2022-10-28T04:18:58.291Z,13.01
2022-10-28T04:24:00.697Z,13.09
2022-10-28T04:29:02.956Z,13.00
2022-10-28T04:34:05.230Z,13.01
2022-10-28T04:39:07.522Z,12.99
2022-10-28T04:44:09.802Z,12.93
2022-10-28T04:49:12.145Z,12.84
2022-10-28T04:54:14.500Z,12.84
2022-10-28T04:59:16.855Z,12.87
2022-10-28T05:04:19.177Z,12.82
2022-10-28T05:09:21.626Z,12.93
2022-10-28T05:14:23.943Z,13.00
2022-10-28T05:19:26.296Z,12.92
2022-10-28T05:24:28.597Z,12.77
2022-10-28T05:29:33.307Z,12.91
2022-10-28T05:34:36.319Z,12.90
2022-10-28T05:39:38.626Z,13.04
2022-10-28T05:44:40.989Z,13.03
2022-10-28T05:49:43.264Z,13.00
2022-10-28T05:54:45.544Z,13.02
2022-10-28T05:59:47.815Z,13.13
2022-10-28T06:04:50.089Z,12.96
2022-10-28T06:09:52.977Z,13.09
2022-10-28T06:14:53.748Z,13.05
2022-10-28T06:19:56.034Z,12.90
2022-10-28T06:24:58.768Z,12.84
2022-10-28T06:30:01.092Z,12.84
2022-10-28T06:35:03.729Z,12.93
2022-10-28T06:40:06.945Z,13.00
2022-10-28T06:45:09.410Z,13.18
2022-10-28T06:50:13.285Z,13.11
2022-10-28T06:55:15.739Z,13.15
2022-10-28T07:00:18.374Z,13.29
2022-10-28T07:05:21.773Z,13.42
2022-10-28T07:10:24.189Z,13.40
2022-10-28T07:15:26.675Z,13.54
2022-10-28T07:20:32.090Z,13.57
2022-10-28T07:25:35.750Z,13.62
2022-10-28T07:30:38.172Z,13.83
2022-10-28T07:35:40.603Z,13.69
2022-10-28T07:40:42.884Z,13.84
2022-10-28T07:45:45.262Z,13.76
2022-10-28T07:50:47.624Z,13.97
2022-10-28T07:56:16.317Z,13.93
2022-10-28T08:01:20.491Z,14.09
2022-10-28T08:06:23.026Z,14.40
2022-10-28T08:11:25.502Z,14.71
2022-10-28T08:16:29.183Z,14.70
2022-10-28T08:21:31.736Z,14.40
2022-10-28T08:26:34.017Z,14.52
2022-10-28T08:31:36.357Z,14.55
2022-10-28T08:36:38.739Z,14.88
2022-10-28T08:41:41.017Z,15.18
2022-10-28T08:47:01.278Z,15.48
2022-10-28T08:52:06.159Z,15.73
2022-10-28T08:57:21.765Z,15.67
2022-10-28T09:02:25.854Z,15.76
2022-10-28T09:07:28.223Z,15.63
2022-10-28T09:12:44.167Z,15.53
2022-10-28T09:17:57.116Z,15.72
2022-10-28T09:23:01.128Z,15.86
2022-10-28T09:28:44.704Z,15.99
2022-10-28T09:33:59.515Z,16.09
2022-10-28T09:39:02.744Z,16.21
2022-10-28T09:44:45.783Z,16.23
2022-10-28T09:49:49.061Z,16.60
2022-10-28T09:54:53.384Z,16.63
2022-10-28T09:59:55.752Z,16.72
2022-10-28T10:04:59.473Z,16.84
2022-10-28T10:10:05.313Z,17.01
2022-10-28T10:15:09.031Z,17.17
2022-10-28T10:20:17.148Z,17.44
2022-10-28T10:25:19.400Z,17.59
2022-10-28T10:30:30.401Z,17.68
2022-10-28T10:35:34.838Z,17.92
2022-10-28T10:40:51.586Z,18.10
2022-10-28T10:46:01.219Z,18.42
2022-10-28T10:51:17.407Z,18.64
2022-10-28T10:56:27.745Z,18.73
2022-10-28T11:01:35.068Z,18.66
2022-10-28T11:06:39.926Z,18.59
2022-10-28T11:11:42.758Z,18.64
2022-10-28T11:16:53.429Z,18.57
2022-10-28T11:21:58.769Z,18.48
2022-10-28T11:27:07.181Z,18.52
2022-10-28T11:32:15.409Z,18.26
2022-10-28T11:37:30.643Z,17.73
2022-10-28T11:42:41.801Z,17.62
2022-10-28T11:47:52.125Z,17.49
2022-10-28T11:53:15.798Z,17.59
2022-10-28T11:58:24.117Z,17.70
2022-10-28T12:03:52.912Z,17.78
2022-10-28T12:09:19.833Z,17.72
2022-10-28T12:14:34.853Z,17.57
2022-10-28T12:19:43.975Z,17.71
2022-10-28T12:24:47.202Z,18.24
2022-10-28T12:29:52.676Z,18.62
2022-10-28T12:35:15.466Z,18.51
2022-10-28T12:40:21.368Z,18.26
2022-10-28T12:45:23.961Z,18.41
2022-10-28T12:50:37.151Z,18.65
2022-10-28T12:55:58.441Z,18.64
2022-10-28T13:01:07.911Z,18.74
2022-10-28T13:06:22.222Z,18.41
2022-10-28T13:11:39.470Z,18.26
2022-10-28T13:17:12.582Z,18.28
2022-10-28T13:22:23.772Z,18.15
2022-10-28T13:27:26.286Z,18.12
2022-10-28T13:32:38.807Z,18.15
2022-10-28T13:37:42.264Z,18.21
2022-10-28T13:42:48.776Z,18.32
2022-10-28T13:47:51.079Z,18.27
2022-10-28T13:53:25.575Z,18.37
2022-10-28T13:58:28.062Z,18.43
2022-10-28T14:03:30.727Z,18.47
2022-10-28T14:08:38.960Z,18.50
2022-10-28T14:13:49.170Z,18.25
2022-10-28T14:19:09.732Z,18.06
2022-10-28T14:24:43.359Z,17.94
2022-10-28T14:29:47.865Z,17.73
2022-10-28T14:34:50.322Z,17.55
2022-10-28T14:40:04.841Z,17.51
2022-10-28T14:45:22.430Z,17.55
2022-10-28T14:50:39.206Z,17.56
2022-10-28T14:55:46.713Z,17.54
2022-10-28T15:01:09.334Z,17.43
2022-10-28T15:06:25.415Z,17.44
2022-10-28T15:11:28.103Z,17.38
2022-10-28T15:16:30.491Z,17.33
2022-10-28T15:21:32.782Z,17.48
2022-10-28T15:26:35.088Z,17.35
2022-10-28T15:32:07.382Z,17.39
2022-10-28T15:37:10.125Z,17.53
2022-10-28T15:42:41.753Z,17.59
2022-10-28T15:47:45.180Z,17.54
2022-10-28T15:52:50.259Z,17.65
2022-10-28T15:57:54.799Z,17.64
2022-10-28T16:03:02.031Z,17.65
2022-10-28T16:08:04.995Z,17.70
2022-10-28T16:13:10.620Z,17.78
2022-10-28T16:18:15.156Z,17.76
2022-10-28T16:23:19.290Z,17.87
2022-10-28T16:28:25.275Z,17.78
2022-10-28T16:33:30.938Z,17.76
2022-10-28T16:38:33.657Z,17.73
2022-10-28T16:43:36.250Z,17.78
2022-10-28T16:48:38.761Z,17.59
2022-10-28T16:53:47.020Z,17.62
2022-10-28T16:58:49.490Z,17.57
2022-10-28T17:03:52.010Z,17.54
2022-10-28T17:09:03.019Z,17.46
2022-10-28T17:14:05.997Z,17.47
2022-10-28T17:19:08.427Z,17.45
2022-10-28T17:24:10.857Z,17.48
2022-10-28T17:29:13.194Z,17.35
2022-10-28T17:34:15.487Z,17.37
2022-10-28T17:39:21.952Z,17.26
2022-10-28T17:44:27.385Z,17.44
2022-10-28T17:49:30.850Z,17.43
2022-10-28T17:54:33.272Z,17.38
2022-10-28T17:59:35.657Z,17.60
2022-10-28T18:04:38.033Z,17.59
2022-10-28T18:09:42.171Z,17.52
2022-10-28T18:14:44.542Z,17.42
2022-10-28T18:19:46.911Z,17.50
2022-10-28T18:24:49.816Z,17.42
2022-10-28T18:29:52.207Z,17.48
2022-10-28T18:34:55.023Z,17.31
2022-10-28T18:39:57.373Z,17.08
2022-10-28T18:44:59.750Z,17.19
2022-10-28T18:50:02.071Z,17.22
2022-10-28T18:55:05.841Z,17.25
2022-10-28T19:00:24.194Z,17.25
2022-10-28T19:05:26.575Z,17.12
2022-10-28T19:10:28.964Z,17.08
2022-10-28T19:15:31.650Z,17.01
2022-10-28T19:20:33.973Z,16.93
2022-10-28T19:25:36.339Z,16.99
2022-10-28T19:30:38.777Z,17.16
2022-10-28T19:35:41.088Z,16.92
2022-10-28T19:40:43.354Z,16.57
2022-10-28T19:45:45.619Z,16.43
2022-10-28T19:50:50.808Z,16.43
2022-10-28T19:55:57.733Z,16.49
2022-10-28T20:01:02.164Z,16.44
2022-10-28T20:06:05.842Z,16.66
2022-10-28T20:11:10.164Z,16.62
2022-10-28T20:16:14.212Z,16.72
2022-10-28T20:21:19.287Z,16.60
2022-10-28T20:26:23.542Z,16.66
2022-10-28T20:31:28.628Z,16.60
2022-10-28T20:36:44.226Z,16.49
2022-10-28T20:41:47.837Z,16.41
2022-10-28T20:46:50.503Z,16.33
2022-10-28T20:51:52.807Z,16.39
2022-10-28T20:56:55.115Z,16.44
2022-10-28T21:01:57.448Z,16.49
2022-10-28T21:06:59.899Z,16.41
2022-10-28T21:12:02.224Z,16.38
2022-10-28T21:17:04.516Z,16.51
2022-10-28T21:22:06.933Z,16.40
2022-10-28T21:27:09.269Z,16.30
2022-10-28T21:32:11.752Z,16.29
2022-10-28T21:37:14.061Z,16.17
2022-10-28T21:42:16.405Z,16.14
2022-10-28T21:52:21.005Z,15.94
2022-10-28T21:57:29.189Z,15.98
2022-10-28T22:02:31.808Z,15.94
2022-10-28T22:07:34.238Z,15.93
2022-10-28T22:12:36.517Z,15.86
2022-10-28T22:17:39.988Z,15.89
2022-10-28T22:22:42.430Z,15.74
2022-10-28T22:27:45.184Z,15.90
2022-10-28T22:32:47.752Z,15.84
2022-10-28T22:37:50.663Z,15.83
2022-10-28T22:42:53.013Z,15.82
2022-10-28T22:47:55.685Z,15.83
2022-10-28T22:52:58.159Z,15.76
2022-10-28T22:58:00.496Z,15.67
2022-10-28T23:03:03.173Z,15.73
2022-10-28T23:08:05.774Z,15.77
2022-10-28T23:13:09.135Z,15.75
2022-10-28T23:18:11.518Z,15.72
2022-10-28T23:23:14.181Z,15.78
2022-10-28T23:28:16.530Z,15.69
2022-10-28T23:33:19.201Z,15.83
2022-10-28T23:38:22.079Z,15.73
2022-10-28T23:43:24.962Z,16.02
2022-10-28T23:48:28.411Z,16.06
2022-10-28T23:53:31.347Z,15.75
2022-10-28T23:58:33.957Z,15.74
